Forside
METAR-TAF:

METAR-TAF

Lufthavne :

Najran, Saudi-Arabien

Breddekreds: 17-37N, længdekreds: 044-25E, højde: 1212 m

Aktuelle vejr

Denne rapport blev lavet for 1 time og 18 minutter siden, kl. 10:00 UTC
Vind 8 kt fra sydsydøst
Temperatur 31°C
Fugtighed 13%
Tryk 1014 hPa
Sigt 10 km eller mere
ingen skyer under 1500m og ingen cumulonimbus

METAR: OENG 141000Z 15008KT CAVOK 31/M01 Q1014 NOSIG

Tid: 14:18 (11:18 UTC)

Vejrudsigter

Denne rapport blev lavet for 12 timer og 18 minutter siden, kl. 23:00 UTC
Foreløbig gælder fra 14 på 00 UTC til 15 på 06 UTC
Vind 10 kt fra vest
Sigt: 7000 m
Nogle få skyer i en højde af 3000 ft
ændring
fra 14 på 06 UTC til 14 på 08 UTC
Vind 12 kt fra sydsydøst

TAF: OENG 132300Z 1400/1506 27010KT 7000 FEW030 BECMG 1406/1408 15012KT

Vejrobservationer og prognoser fra mere end 4000 lufthavne (METAR og TAF).

De gule og røde prikker repræsenterer de meteorologiske stationer.

Flyt musen over at se navnet på stationen.

Så klik over at se vejr observationer og prognoser.

At skifte det kort: Klik på de grønne knapper med et sort kors for at zoome ind; på den grønne knap med en bindestreg for at zoome ud; eller på de grønne pile for tilstødende kort.


METAR-TAF: